createdAt,value
2019-04-29T00:00:46.682Z,94499.85
2019-04-29T00:03:16.180Z,94507.44
2019-04-29T00:05:45.676Z,94507.89
2019-04-29T00:08:15.269Z,94504.75
2019-04-29T00:10:46.064Z,94502.42
2019-04-29T00:13:15.829Z,94496.61
2019-04-29T00:16:13.872Z,94500.50
2019-04-29T00:19:02.874Z,94492.97
2019-04-29T00:21:32.314Z,94488.47
2019-04-29T00:24:04.120Z,94491.81
2019-04-29T00:26:33.129Z,94489.48
2019-04-29T00:29:02.602Z,94483.45
2019-04-29T00:31:32.100Z,94479.46
2019-04-29T00:34:01.608Z,94473.25
2019-04-29T00:36:38.678Z,94470.56
2019-04-29T00:39:36.130Z,94471.28
2019-04-29T00:42:33.961Z,94470.04
2019-04-29T00:45:03.542Z,94470.76
2019-04-29T00:47:33.007Z,94470.16
2019-04-29T00:50:02.476Z,94468.13
2019-04-29T00:52:31.975Z,94471.56
2019-04-29T00:55:07.417Z,94466.73
2019-04-29T00:57:36.891Z,94472.05
2019-04-29T01:00:07.917Z,94471.75
2019-04-29T01:02:37.395Z,94466.50
2019-04-29T01:05:06.980Z,94470.94
2019-04-29T01:07:36.484Z,94470.73
2019-04-29T01:10:06.961Z,94469.56
2019-04-29T01:12:37.402Z,94470.25
2019-04-29T01:15:07.216Z,94469.73
2019-04-29T01:17:36.692Z,94470.45
2019-04-29T01:20:06.526Z,94463.08
2019-04-29T01:22:36.019Z,94464.55
2019-04-29T01:25:05.490Z,94467.47
2019-04-29T01:27:40.942Z,94464.40
2019-04-29T01:30:11.962Z,94462.41
2019-04-29T01:32:41.490Z,94461.84
2019-04-29T01:35:10.955Z,94460.52
2019-04-29T01:37:42.432Z,94455.41
2019-04-29T01:40:33.661Z,94455.41
2019-04-29T01:43:03.128Z,94453.80
2019-04-29T01:45:32.672Z,94455.00
2019-04-29T01:48:02.140Z,94453.52
2019-04-29T01:50:31.649Z,94450.18
2019-04-29T01:53:01.117Z,94446.91
2019-04-29T01:55:30.605Z,94454.40
2019-04-29T01:58:00.078Z,94451.35
2019-04-29T02:00:29.554Z,94454.78
2019-04-29T02:02:59.040Z,94457.55
2019-04-29T02:05:28.515Z,94456.41
2019-04-29T02:07:58.014Z,94452.52
2019-04-29T02:10:33.201Z,94460.49
2019-04-29T02:13:02.683Z,94453.50
2019-04-29T02:15:32.156Z,94455.83
2019-04-29T02:18:01.645Z,94460.11
2019-04-29T02:20:31.134Z,94461.13
2019-04-29T02:23:21.255Z,94459.23
2019-04-29T02:25:50.740Z,94464.40
2019-04-29T02:28:20.202Z,94459.93
2019-04-29T02:30:52.001Z,94461.16
2019-04-29T02:33:21.475Z,94461.16
2019-04-29T02:35:50.945Z,94447.38
2019-04-29T02:38:36.356Z,94447.88
2019-04-29T02:41:31.104Z,94449.97
2019-04-29T02:44:02.189Z,94456.33
2019-04-29T02:46:31.664Z,94454.00
2019-04-29T02:49:01.138Z,94448.62
2019-04-29T02:51:45.880Z,94443.22
2019-04-29T02:54:15.386Z,94456.80
2019-04-29T02:56:47.616Z,94452.39
2019-04-29T02:59:19.248Z,94450.92
2019-04-29T03:01:59.948Z,94454.66
2019-04-29T03:04:32.044Z,94450.18
2019-04-29T03:07:01.670Z,94447.29
2019-04-29T03:09:32.823Z,94445.80
2019-04-29T03:12:02.483Z,94445.29
2019-04-29T03:14:32.072Z,94452.56
2019-04-29T03:17:01.634Z,94459.34
2019-04-29T03:19:35.107Z,94458.63
2019-04-29T03:22:05.955Z,94463.21
2019-04-29T03:24:35.409Z,94469.27
2019-04-29T03:27:04.929Z,94470.48
2019-04-29T03:29:34.411Z,94471.50
2019-04-29T03:32:03.920Z,94472.55
2019-04-29T03:34:33.381Z,94471.45
2019-04-29T03:37:02.832Z,94474.97
2019-04-29T03:39:32.317Z,94478.91
2019-04-29T03:42:01.826Z,94475.73
2019-04-29T03:44:31.342Z,94474.94
2019-04-29T03:47:00.813Z,94464.44
2019-04-29T03:49:30.349Z,94471.20
2019-04-29T03:51:59.802Z,94476.80
2019-04-29T03:54:29.290Z,94474.55
2019-04-29T03:56:58.761Z,94475.34
2019-04-29T03:59:28.250Z,94478.83
2019-04-29T04:02:06.830Z,94471.85
2019-04-29T04:04:54.090Z,94474.94
2019-04-29T04:07:34.109Z,94478.57
2019-04-29T04:10:03.578Z,94479.17
2019-04-29T04:12:33.085Z,94483.45
2019-04-29T04:15:02.554Z,94489.13
2019-04-29T04:17:37.981Z,94488.95
2019-04-29T04:20:07.966Z,94489.29
2019-04-29T04:22:47.495Z,94487.36
2019-04-29T04:25:17.281Z,94486.13
2019-04-29T04:27:46.810Z,94480.50
2019-04-29T04:30:16.802Z,94480.64
2019-04-29T04:32:46.269Z,94475.69
2019-04-29T04:35:15.946Z,94479.45
2019-04-29T04:37:45.465Z,94477.83
2019-04-29T04:40:17.931Z,94474.92
2019-04-29T04:42:47.438Z,94474.44
2019-04-29T04:45:17.230Z,94476.88
2019-04-29T04:47:46.706Z,94480.81
2019-04-29T04:50:16.402Z,94482.42
2019-04-29T04:52:45.879Z,94477.95
2019-04-29T04:55:15.472Z,94471.76
2019-04-29T04:57:44.956Z,94472.78
2019-04-29T05:00:20.492Z,94469.29
2019-04-29T05:02:49.951Z,94470.23
2019-04-29T05:05:19.474Z,94469.80
2019-04-29T05:07:48.920Z,94462.11
2019-04-29T05:10:18.375Z,94456.48
2019-04-29T05:12:47.987Z,94470.81
2019-04-29T05:15:17.585Z,94467.24
2019-04-29T05:17:47.067Z,94473.13
2019-04-29T05:20:16.653Z,94472.22
2019-04-29T05:23:01.509Z,94472.06
2019-04-29T05:25:33.095Z,94469.69
2019-04-29T05:28:02.728Z,94469.73
2019-04-29T05:30:32.296Z,94464.98
2019-04-29T05:33:01.751Z,94466.62
2019-04-29T05:35:56.598Z,94466.47
2019-04-29T05:38:42.938Z,94465.52
2019-04-29T05:41:12.405Z,94467.94
2019-04-29T05:43:54.037Z,94470.02
2019-04-29T05:46:30.148Z,94476.02
2019-04-29T05:49:02.328Z,94474.19
2019-04-29T05:51:36.766Z,94473.42
2019-04-29T05:54:07.060Z,94470.31
2019-04-29T05:56:36.564Z,94468.70
2019-04-29T05:59:08.566Z,94469.00
2019-04-29T06:01:37.284Z,94465.99
2019-04-29T06:04:06.796Z,94469.43
2019-04-29T06:06:36.255Z,94472.17
2019-04-29T06:09:11.619Z,94479.50
2019-04-29T06:11:39.087Z,94473.42
2019-04-29T06:14:08.591Z,94476.80
2019-04-29T06:16:38.163Z,94476.04
2019-04-29T06:19:07.661Z,94471.56
2019-04-29T06:21:37.197Z,94475.91
2019-04-29T06:24:06.683Z,94472.56
2019-04-29T06:26:36.169Z,94482.02
2019-04-29T06:29:06.218Z,94479.16
2019-04-29T06:31:35.783Z,94476.22
2019-04-29T06:34:06.540Z,94469.19
2019-04-29T06:36:36.124Z,94474.36
2019-04-29T06:39:07.615Z,94470.69
2019-04-29T06:41:40.599Z,94468.47
2019-04-29T06:44:16.124Z,94456.98
2019-04-29T06:46:39.507Z,94459.03
2019-04-29T06:49:10.325Z,94457.77
2019-04-29T06:51:40.350Z,94450.72
2019-04-29T06:54:09.891Z,94449.84
2019-04-29T06:56:39.421Z,94445.46
2019-04-29T06:59:12.101Z,94441.33
2019-04-29T07:01:40.148Z,94447.13
2019-04-29T07:04:09.606Z,94451.43
2019-04-29T07:06:39.144Z,94454.14
2019-04-29T07:09:08.768Z,94453.64
2019-04-29T07:11:38.524Z,94441.14
2019-04-29T07:14:08.134Z,94439.58
2019-04-29T07:16:37.608Z,94437.66
2019-04-29T07:19:07.147Z,94440.33
2019-04-29T07:21:36.645Z,94428.58
2019-04-29T07:24:06.135Z,94430.94
2019-04-29T07:26:35.689Z,94431.13
2019-04-29T07:29:05.162Z,94430.86
2019-04-29T07:31:35.204Z,94431.11
2019-04-29T07:34:04.826Z,94430.28
2019-04-29T07:36:34.285Z,94429.99
2019-04-29T07:39:05.719Z,94433.28
2019-04-29T07:41:35.190Z,94432.06
2019-04-29T07:44:04.734Z,94429.77
2019-04-29T07:46:56.812Z,94430.11
2019-04-29T07:49:19.741Z,94429.59
2019-04-29T07:51:49.255Z,94423.92
2019-04-29T07:54:18.827Z,94422.97
2019-04-29T07:56:48.321Z,94423.63
2019-04-29T07:59:18.091Z,94426.94
2019-04-29T08:01:47.619Z,94421.24
2019-04-29T08:04:17.085Z,94424.36
2019-04-29T08:06:46.966Z,94418.50
2019-04-29T08:09:16.755Z,94422.88
2019-04-29T08:11:46.443Z,94419.12
2019-04-29T08:14:19.108Z,94421.92
2019-04-29T08:16:48.588Z,94413.97
2019-04-29T08:19:18.077Z,94420.05
2019-04-29T08:21:49.696Z,94411.31
2019-04-29T08:24:18.767Z,94416.70
2019-04-29T08:26:48.257Z,94416.98
2019-04-29T08:29:17.732Z,94410.65
2019-04-29T08:31:47.197Z,94408.41
2019-04-29T08:34:18.672Z,94414.05
2019-04-29T08:36:47.935Z,94408.22
2019-04-29T08:39:17.389Z,94411.03
2019-04-29T08:41:46.884Z,94400.56
2019-04-29T08:44:24.886Z,94395.59
2019-04-29T08:46:57.924Z,94392.69
2019-04-29T08:49:27.400Z,94392.64
2019-04-29T08:51:56.868Z,94392.10
2019-04-29T08:54:26.354Z,94387.33
2019-04-29T08:57:03.143Z,94383.58
2019-04-29T08:59:27.048Z,94383.86
2019-04-29T09:01:57.722Z,94380.44
2019-04-29T09:04:28.542Z,94379.14
2019-04-29T09:07:11.653Z,94371.17
2019-04-29T09:09:29.887Z,94373.05
2019-04-29T09:12:14.725Z,94364.30
2019-04-29T09:15:04.179Z,94368.30
2019-04-29T09:17:47.709Z,94356.89
2019-04-29T09:20:17.610Z,94360.02
2019-04-29T09:22:52.513Z,94355.93
2019-04-29T09:26:05.975Z,94358.31
2019-04-29T09:28:35.454Z,94344.78
2019-04-29T09:31:05.171Z,94342.91
2019-04-29T09:34:05.490Z,94346.43
2019-04-29T09:36:48.340Z,94345.13
2019-04-29T09:39:16.119Z,94342.23
2019-04-29T09:41:59.089Z,94337.73
2019-04-29T09:44:59.853Z,94335.06
2019-04-29T09:47:29.758Z,94330.03
2019-04-29T09:49:59.228Z,94320.72
2019-04-29T09:52:28.784Z,94319.35
2019-04-29T09:54:59.622Z,94314.85
2019-04-29T09:57:29.487Z,94311.92
2019-04-29T10:00:07.516Z,94316.46
2019-04-29T10:02:55.959Z,94312.75
2019-04-29T10:05:35.774Z,94311.70
2019-04-29T10:08:05.745Z,94301.62
2019-04-29T10:10:37.234Z,94300.53
2019-04-29T10:13:06.668Z,94301.33
2019-04-29T10:15:43.689Z,94292.24
2019-04-29T10:18:32.222Z,94291.73
2019-04-29T10:21:08.270Z,94291.20
2019-04-29T10:23:37.840Z,94288.31
2019-04-29T10:26:07.341Z,94288.83
2019-04-29T10:28:39.786Z,94276.78
2019-04-29T10:31:09.277Z,94275.95
2019-04-29T10:33:38.784Z,94279.45
2019-04-29T10:36:08.908Z,94272.31
2019-04-29T10:38:40.409Z,94268.33
2019-04-29T10:41:16.331Z,94263.98
2019-04-29T10:44:03.521Z,94269.34
2019-04-29T10:46:57.983Z,94253.06
2019-04-29T10:49:34.886Z,94245.08
2019-04-29T10:52:04.566Z,94246.37
2019-04-29T10:54:35.149Z,94241.69
2019-04-29T10:57:05.003Z,94241.98
2019-04-29T10:59:40.747Z,94237.77
2019-04-29T11:02:24.236Z,94231.16
2019-04-29T11:04:56.752Z,94232.69
2019-04-29T11:07:38.365Z,94230.30
2019-04-29T11:10:24.777Z,94226.63
2019-04-29T11:12:47.409Z,94216.80
2019-04-29T11:15:18.178Z,94213.61
2019-04-29T11:17:47.660Z,94215.42
2019-04-29T11:20:19.626Z,94215.64
2019-04-29T11:22:55.061Z,94207.86
2019-04-29T11:25:33.442Z,94214.42
2019-04-29T11:28:03.028Z,94209.56
2019-04-29T11:30:39.122Z,94208.17
2019-04-29T11:33:12.712Z,94213.66
2019-04-29T11:36:03.987Z,94208.06
2019-04-29T11:38:38.210Z,94209.62
2019-04-29T11:41:05.320Z,94205.26
2019-04-29T11:43:35.123Z,94202.18
2019-04-29T11:46:04.895Z,94204.66
2019-04-29T11:48:34.479Z,94200.41
2019-04-29T11:51:29.379Z,94198.50
2019-04-29T11:53:58.830Z,94193.66
2019-04-29T11:56:28.331Z,94186.09
2019-04-29T11:59:07.592Z,94186.89
2019-04-29T12:01:59.773Z,94184.33
2019-04-29T12:04:34.718Z,94180.93
2019-04-29T12:07:04.501Z,94174.50
2019-04-29T12:09:34.370Z,94175.96
2019-04-29T12:12:07.963Z,94169.36
2019-04-29T12:14:54.263Z,94166.99
2019-04-29T12:17:30.589Z,94159.27
2019-04-29T12:20:03.253Z,94154.45
2019-04-29T12:22:32.944Z,94155.86
2019-04-29T12:25:02.466Z,94151.86
2019-04-29T12:27:31.993Z,94150.77
2019-04-29T12:30:03.354Z,94145.88
2019-04-29T12:32:43.369Z,94140.53
2019-04-29T12:35:34.883Z,94132.94
2019-04-29T12:38:48.781Z,94136.59
2019-04-29T12:41:31.529Z,94132.11
2019-04-29T12:44:11.132Z,94122.21
2019-04-29T12:46:43.377Z,94125.63
2019-04-29T12:49:13.772Z,94123.53
2019-04-29T12:51:43.600Z,94121.05
2019-04-29T12:54:13.086Z,94117.35
2019-04-29T12:56:47.392Z,94119.13
2019-04-29T12:59:14.076Z,94118.00
2019-04-29T13:02:02.797Z,94113.59
2019-04-29T13:05:00.306Z,94111.30
2019-04-29T13:07:47.515Z,94101.33
2019-04-29T13:10:25.677Z,94098.99
2019-04-29T13:12:58.032Z,94099.61
2019-04-29T13:15:36.496Z,94091.48
2019-04-29T13:18:13.911Z,94093.69
2019-04-29T13:20:45.975Z,94097.94
2019-04-29T13:23:19.448Z,94092.91
2019-04-29T13:25:44.404Z,94094.61
2019-04-29T13:28:29.024Z,94089.66
2019-04-29T13:30:45.492Z,94089.61
2019-04-29T13:33:16.654Z,94090.53
2019-04-29T13:35:48.610Z,94082.55
2019-04-29T13:38:17.702Z,94082.38
2019-04-29T13:40:47.176Z,94079.20
2019-04-29T13:43:20.650Z,94076.19
2019-04-29T13:45:53.768Z,94077.87
2019-04-29T13:48:55.806Z,94081.06
2019-04-29T13:51:35.226Z,94083.60
2019-04-29T13:53:59.804Z,94077.83
2019-04-29T13:56:39.224Z,94082.78
2019-04-29T13:59:01.436Z,94074.82
2019-04-29T14:02:01.227Z,94064.44
2019-04-29T14:04:29.290Z,94077.78
2019-04-29T14:06:58.767Z,94067.64
2019-04-29T14:09:28.290Z,94065.20
2019-04-29T14:12:02.904Z,94070.23
2019-04-29T14:14:28.992Z,94067.02
2019-04-29T14:17:11.897Z,94062.16
2019-04-29T14:19:45.042Z,94058.15
2019-04-29T14:22:00.905Z,94060.32
2019-04-29T14:24:33.295Z,94052.84
2019-04-29T14:27:02.860Z,94051.56
2019-04-29T14:29:32.324Z,94052.39
2019-04-29T14:32:01.873Z,94051.19
2019-04-29T14:34:36.924Z,94054.79
2019-04-29T14:37:25.163Z,94056.56
2019-04-29T14:39:38.143Z,94053.81
2019-04-29T14:42:18.906Z,94056.16
2019-04-29T14:45:22.482Z,94050.55
2019-04-29T14:48:10.914Z,94051.73
2019-04-29T14:50:41.257Z,94051.55
2019-04-29T14:53:10.766Z,94050.86
2019-04-29T14:55:40.234Z,94045.03
2019-04-29T14:58:09.780Z,94042.88
2019-04-29T15:01:02.993Z,94040.61
2019-04-29T15:03:34.553Z,94042.34
2019-04-29T15:06:04.132Z,94032.59
2019-04-29T15:08:36.379Z,94035.09
2019-04-29T15:11:10.614Z,94038.83
2019-04-29T15:13:36.042Z,94045.50
2019-04-29T15:16:14.017Z,94056.20
2019-04-29T15:19:02.556Z,94059.34
2019-04-29T15:21:45.630Z,94049.20
2019-04-29T15:24:17.517Z,94048.87
2019-04-29T15:26:46.606Z,94053.51
2019-04-29T15:29:16.091Z,94052.09
2019-04-29T15:31:47.150Z,94049.55
2019-04-29T15:34:16.874Z,94053.73
2019-04-29T15:36:46.348Z,94051.37
2019-04-29T15:39:16.227Z,94050.77
2019-04-29T15:41:45.851Z,94047.34
2019-04-29T15:44:20.295Z,94042.58
2019-04-29T15:46:47.090Z,94045.89
2019-04-29T15:49:20.211Z,94038.70
2019-04-29T15:51:49.362Z,94043.65
2019-04-29T15:54:19.179Z,94038.13
2019-04-29T15:56:48.788Z,94043.48
2019-04-29T15:59:18.251Z,94049.20
2019-04-29T16:01:47.966Z,94049.29
2019-04-29T16:04:27.699Z,94048.83
2019-04-29T16:07:18.921Z,94054.37
2019-04-29T16:10:14.430Z,94036.10
2019-04-29T16:12:50.942Z,94045.22
2019-04-29T16:15:18.933Z,94049.84
2019-04-29T16:17:48.449Z,94051.62
2019-04-29T16:20:17.906Z,94049.84
2019-04-29T16:22:47.365Z,94055.80
2019-04-29T16:25:16.882Z,94053.99
2019-04-29T16:27:53.023Z,94061.20
2019-04-29T16:30:19.107Z,94056.77
2019-04-29T16:32:48.774Z,94064.34
2019-04-29T16:35:23.682Z,94058.25
2019-04-29T16:37:49.856Z,94072.42
2019-04-29T16:40:19.994Z,94072.22
2019-04-29T16:43:01.408Z,94072.77
2019-04-29T16:45:51.593Z,94073.61
2019-04-29T16:48:21.063Z,94073.92
2019-04-29T16:50:50.568Z,94064.36
2019-04-29T16:53:20.243Z,94068.41
2019-04-29T16:55:49.692Z,94066.59
2019-04-29T16:58:19.299Z,94068.73
2019-04-29T17:00:52.525Z,94075.12
2019-04-29T17:03:20.860Z,94080.48
2019-04-29T17:05:50.378Z,94081.55
2019-04-29T17:08:22.366Z,94080.80
2019-04-29T17:11:11.966Z,94081.91
2019-04-29T17:13:39.019Z,94088.56
2019-04-29T17:16:12.352Z,94088.86
2019-04-29T17:18:41.863Z,94093.42
2019-04-29T17:21:11.688Z,94086.25
2019-04-29T17:23:41.145Z,94094.22
2019-04-29T17:26:10.648Z,94091.83
2019-04-29T17:28:46.458Z,94093.69
2019-04-29T17:31:28.618Z,94094.22
2019-04-29T17:34:07.256Z,94099.80
2019-04-29T17:36:37.011Z,94091.33
2019-04-29T17:39:07.827Z,94096.91
2019-04-29T17:41:37.312Z,94095.08
2019-04-29T17:44:41.142Z,94099.33
2019-04-29T17:47:29.499Z,94099.91
2019-04-29T17:50:29.915Z,94102.58
2019-04-29T17:52:52.974Z,94095.15
2019-04-29T17:55:45.948Z,94103.13
2019-04-29T17:58:19.918Z,94099.42
2019-04-29T18:01:08.214Z,94096.76
2019-04-29T18:03:56.703Z,94096.21
2019-04-29T18:06:39.521Z,94112.65
2019-04-29T18:09:28.190Z,94110.81
2019-04-29T18:11:59.410Z,94111.85
2019-04-29T18:14:36.820Z,94117.70
2019-04-29T18:17:00.124Z,94121.42
2019-04-29T18:19:45.191Z,94120.60
2019-04-29T18:22:44.729Z,94128.85
2019-04-29T18:25:31.141Z,94136.27
2019-04-29T18:28:00.278Z,94138.35
2019-04-29T18:30:35.736Z,94145.77
2019-04-29T18:33:01.414Z,94149.48
2019-04-29T18:35:30.936Z,94155.31
2019-04-29T18:38:00.471Z,94164.07
2019-04-29T18:40:30.300Z,94160.33
2019-04-29T18:42:59.791Z,94162.91
2019-04-29T18:45:34.117Z,94159.16
2019-04-29T18:48:00.883Z,94160.77
2019-04-29T18:50:34.313Z,94170.06
2019-04-29T18:53:01.710Z,94164.75
2019-04-29T18:55:31.232Z,94165.28
2019-04-29T18:58:00.990Z,94162.10
2019-04-29T19:00:30.768Z,94172.45
2019-04-29T19:03:01.207Z,94167.11
2019-04-29T19:05:36.661Z,94166.33
2019-04-29T19:08:14.294Z,94167.61
2019-04-29T19:10:37.678Z,94163.02
2019-04-29T19:13:12.610Z,94164.89
2019-04-29T19:15:40.051Z,94166.47
2019-04-29T19:18:12.305Z,94169.07
2019-04-29T19:20:41.073Z,94166.41
2019-04-29T19:23:10.514Z,94165.05
2019-04-29T19:25:41.521Z,94166.05
2019-04-29T19:28:14.570Z,94153.86
2019-04-29T19:30:42.594Z,94160.76
2019-04-29T19:33:12.084Z,94157.84
2019-04-29T19:35:41.631Z,94159.44
2019-04-29T19:38:13.487Z,94165.23
2019-04-29T19:40:42.738Z,94159.34
2019-04-29T19:43:15.351Z,94148.20
2019-04-29T19:45:44.635Z,94154.30
2019-04-29T19:48:16.124Z,94158.55
2019-04-29T19:50:51.640Z,94154.27
2019-04-29T19:53:17.001Z,94155.02
2019-04-29T19:55:46.625Z,94154.75
2019-04-29T19:58:16.692Z,94153.95
2019-04-29T20:00:47.570Z,94154.63
2019-04-29T20:03:23.419Z,94151.09
2019-04-29T20:05:53.383Z,94152.64
2019-04-29T20:08:41.081Z,94157.93
2019-04-29T20:10:56.807Z,94151.59
2019-04-29T20:13:31.610Z,94160.33
2019-04-29T20:16:12.794Z,94153.34
2019-04-29T20:18:58.381Z,94147.78
2019-04-29T20:21:25.336Z,94153.88
2019-04-29T20:23:53.222Z,94157.07
2019-04-29T20:26:28.961Z,94163.41
2019-04-29T20:28:55.687Z,94156.45
2019-04-29T20:31:26.044Z,94156.18
2019-04-29T20:33:58.502Z,94159.07
2019-04-29T20:36:38.131Z,94164.33
2019-04-29T20:38:58.402Z,94159.04
2019-04-29T20:41:40.179Z,94169.34
2019-04-29T20:44:00.865Z,94167.22
2019-04-29T20:46:44.582Z,94167.53
2019-04-29T20:49:01.865Z,94166.70
2019-04-29T20:51:47.936Z,94166.36
2019-04-29T20:54:13.014Z,94161.28
2019-04-29T20:56:40.115Z,94162.56
2019-04-29T20:59:12.857Z,94162.28
2019-04-29T21:01:44.733Z,94166.50
2019-04-29T21:04:29.849Z,94160.79
2019-04-29T21:06:59.105Z,94165.75
2019-04-29T21:09:16.913Z,94164.92
2019-04-29T21:12:04.463Z,94163.31
2019-04-29T21:14:39.201Z,94167.24
2019-04-29T21:17:10.972Z,94173.30
2019-04-29T21:19:39.904Z,94170.08
2019-04-29T21:22:12.897Z,94165.36
2019-04-29T21:24:40.649Z,94168.60
2019-04-29T21:27:10.248Z,94163.59
2019-04-29T21:29:39.715Z,94172.58
2019-04-29T21:32:09.172Z,94172.05
2019-04-29T21:35:00.386Z,94175.25
2019-04-29T21:37:44.863Z,94182.94
2019-04-29T21:40:26.005Z,94178.70
2019-04-29T21:43:13.351Z,94179.98
2019-04-29T21:45:39.797Z,94189.03
2019-04-29T21:48:07.952Z,94195.12
2019-04-29T21:50:38.133Z,94186.94
2019-04-29T21:53:07.600Z,94192.11
2019-04-29T21:55:37.098Z,94185.27
2019-04-29T21:58:06.603Z,94183.14
2019-04-29T22:00:37.415Z,94185.66
2019-04-29T22:03:07.054Z,94181.45
2019-04-29T22:05:36.525Z,94189.39
2019-04-29T22:08:06.231Z,94192.80
2019-04-29T22:10:36.829Z,94185.34
2019-04-29T22:13:06.351Z,94183.78
2019-04-29T22:15:39.032Z,94189.03
2019-04-29T22:18:13.468Z,94189.39
2019-04-29T22:20:42.221Z,94189.88
2019-04-29T22:23:13.131Z,94181.89
2019-04-29T22:25:41.174Z,94185.50
2019-04-29T22:28:15.972Z,94183.90
2019-04-29T22:30:43.021Z,94185.22
2019-04-29T22:33:12.527Z,94189.75
2019-04-29T22:35:42.018Z,94188.22
2019-04-29T22:38:12.539Z,94181.34
2019-04-29T22:40:45.106Z,94191.50
2019-04-29T22:43:20.117Z,94187.73
2019-04-29T22:45:49.620Z,94186.33
2019-04-29T22:48:19.921Z,94188.41
2019-04-29T22:50:49.520Z,94182.56
2019-04-29T22:53:18.991Z,94183.61
2019-04-29T22:55:48.483Z,94180.48
2019-04-29T22:58:17.958Z,94180.97
2019-04-29T23:00:47.404Z,94183.23
2019-04-29T23:03:16.882Z,94170.20
2019-04-29T23:05:46.361Z,94174.23
2019-04-29T23:08:15.870Z,94170.84
2019-04-29T23:10:45.683Z,94176.63
2019-04-29T23:13:15.188Z,94171.52
2019-04-29T23:15:45.561Z,94176.38
2019-04-29T23:18:24.297Z,94175.06
2019-04-29T23:21:08.389Z,94174.45
2019-04-29T23:23:42.870Z,94172.65
2019-04-29T23:26:12.336Z,94174.25
2019-04-29T23:28:41.802Z,94169.77
2019-04-29T23:31:11.311Z,94165.25
2019-04-29T23:33:40.822Z,94165.97
2019-04-29T23:36:14.046Z,94161.77
2019-04-29T23:38:42.838Z,94171.77
2019-04-29T23:41:12.659Z,94172.00
2019-04-29T23:43:42.167Z,94169.59
2019-04-29T23:46:11.634Z,94166.05
2019-04-29T23:48:41.115Z,94168.17
2019-04-29T23:51:10.601Z,94162.09
2019-04-29T23:53:40.097Z,94163.88
2019-04-29T23:56:09.917Z,94168.60
2019-04-29T23:58:47.069Z,94166.66
